WIF773P EGYP-SBRJ
Flight info
| Callsign | WIF773P |
|---|---|
| Flight time | N/A |
| Altitude | 35000 |
| Route | 50S056W 40S050W/N0459F370 30S045W DCT KOLBI |
| Aircraft | E195/M-SDE3GILORVW/S |
Departure
| Time | N/A |
|---|---|
| Airport | Mount Pleasant Airport / RAF Mount Pleasant (EGYP) |
Arrival
| Time | 2026-05-04 00:18 |
|---|---|
| Airport | Santos Dumont Airport (SBRJ) |
| Time | Latitude | Longitude | Altitude | Speed | Heading |
|---|---|---|---|---|---|
| 2026-05-03 22:59 | -24.33162 | -44.78046 | 28634 ft | 450 kts | 7° |
| 2026-05-03 22:59 | -24.30169 | -44.77034 | 28054 ft | 442 kts | 8° |
| 2026-05-03 22:59 | -24.27269 | -44.76053 | 27559 ft | 433 kts | 8° |
| 2026-05-03 23:00 | -24.24409 | -44.75086 | 27087 ft | 423 kts | 8° |
| 2026-05-03 23:00 | -24.21600 | -44.74137 | 26624 ft | 415 kts | 8° |
| 2026-05-03 23:00 | -24.18869 | -44.73215 | 26041 ft | 411 kts | 8° |
| 2026-05-03 23:00 | -24.16121 | -44.72287 | 25544 ft | 405 kts | 8° |
| 2026-05-03 23:01 | -24.13415 | -44.71339 | 25075 ft | 402 kts | 15° |
| 2026-05-03 23:01 | -24.11046 | -44.69604 | 24693 ft | 413 kts | 42° |
| 2026-05-03 23:01 | -24.09434 | -44.66976 | 24791 ft | 419 kts | 60° |
| 2026-05-03 23:01 | -24.08097 | -44.64075 | 24836 ft | 425 kts | 61° |
| 2026-05-03 23:02 | -24.06763 | -44.61143 | 24854 ft | 429 kts | 61° |
| 2026-05-03 23:02 | -24.05423 | -44.58190 | 24869 ft | 428 kts | 61° |
| 2026-05-03 23:02 | -24.04078 | -44.55224 | 24878 ft | 428 kts | 61° |
| 2026-05-03 23:02 | -24.02754 | -44.52309 | 24891 ft | 429 kts | 61° |
| 2026-05-03 23:03 | -24.01417 | -44.49363 | 24901 ft | 428 kts | 61° |
| 2026-05-03 23:03 | -24.00087 | -44.46436 | 24916 ft | 427 kts | 61° |
| 2026-05-03 23:03 | -23.98776 | -44.43552 | 24929 ft | 429 kts | 61° |
| 2026-05-03 23:03 | -23.97426 | -44.40586 | 24940 ft | 429 kts | 61° |
| 2026-05-03 23:04 | -23.96109 | -44.37693 | 24958 ft | 429 kts | 61° |
| 2026-05-03 23:04 | -23.94778 | -44.34771 | 24973 ft | 429 kts | 60° |
| 2026-05-03 23:04 | -23.93441 | -44.31838 | 24964 ft | 427 kts | 60° |
| 2026-05-03 23:04 | -23.92116 | -44.28934 | 24956 ft | 428 kts | 61° |
| 2026-05-03 23:05 | -23.90790 | -44.26027 | 24952 ft | 427 kts | 60° |
| 2026-05-03 23:05 | -23.89459 | -44.23084 | 24950 ft | 429 kts | 62° |
| 2026-05-03 23:05 | -23.88157 | -44.20147 | 24641 ft | 432 kts | 62° |
| 2026-05-03 23:05 | -23.86853 | -44.17207 | 24177 ft | 429 kts | 62° |
| 2026-05-03 23:06 | -23.85562 | -44.14301 | 23713 ft | 424 kts | 63° |
| 2026-05-03 23:06 | -23.84286 | -44.11429 | 23246 ft | 418 kts | 63° |
| 2026-05-03 23:06 | -23.83024 | -44.08589 | 22789 ft | 412 kts | 63° |
| 2026-05-03 23:06 | -23.81482 | -44.06020 | 22344 ft | 400 kts | 40° |
| 2026-05-03 23:07 | -23.79264 | -44.04391 | 22024 ft | 379 kts | 17° |
| 2026-05-03 23:07 | -23.76753 | -44.03671 | 21638 ft | 368 kts | 1° |
| 2026-05-03 23:07 | -23.74218 | -44.03347 | 21216 ft | 365 kts | 358° |
| 2026-05-03 23:07 | -23.71699 | -44.03128 | 20807 ft | 361 kts | 357° |
| 2026-05-03 23:08 | -23.69207 | -44.02947 | 20410 ft | 357 kts | 357° |
| 2026-05-03 23:08 | -23.66748 | -44.02782 | 20014 ft | 353 kts | 357° |
| 2026-05-03 23:08 | -23.64309 | -44.02624 | 19626 ft | 348 kts | 357° |
| 2026-05-03 23:08 | -23.61886 | -44.02469 | 19242 ft | 345 kts | 357° |
| 2026-05-03 23:09 | -23.59499 | -44.02317 | 18858 ft | 342 kts | 358° |
| 2026-05-03 23:09 | -23.57156 | -44.02167 | 18487 ft | 339 kts | 358° |
| 2026-05-03 23:09 | -23.54790 | -44.02016 | 18207 ft | 335 kts | 358° |
| 2026-05-03 23:09 | -23.52465 | -44.01867 | 17846 ft | 334 kts | 358° |
| 2026-05-03 23:10 | -23.50149 | -44.01718 | 17481 ft | 331 kts | 358° |
| 2026-05-03 23:10 | -23.47860 | -44.01572 | 17114 ft | 328 kts | 358° |
| 2026-05-03 23:10 | -23.45586 | -44.01427 | 16752 ft | 326 kts | 359° |
| 2026-05-03 23:10 | -23.43343 | -44.01284 | 16397 ft | 325 kts | 359° |
| 2026-05-03 23:11 | -23.41083 | -44.01139 | 16037 ft | 324 kts | 359° |
| 2026-05-03 23:11 | -23.38819 | -44.00994 | 15675 ft | 323 kts | 359° |
| 2026-05-03 23:11 | -23.36572 | -44.00851 | 15320 ft | 321 kts | 360° |
| 2026-05-03 23:11 | -23.34350 | -44.00709 | 14964 ft | 319 kts | 0° |
| 2026-05-03 23:12 | -23.32134 | -44.00567 | 14610 ft | 317 kts | 0° |
| 2026-05-03 23:12 | -23.29952 | -44.00428 | 14262 ft | 315 kts | 0° |
| 2026-05-03 23:12 | -23.27772 | -44.00289 | 13917 ft | 313 kts | 1° |
| 2026-05-03 23:12 | -23.25571 | -44.00149 | 13564 ft | 312 kts | 1° |
| 2026-05-03 23:13 | -23.23391 | -44.00010 | 13215 ft | 309 kts | 2° |
| 2026-05-03 23:13 | -23.21217 | -43.99871 | 12867 ft | 307 kts | 2° |
| 2026-05-03 23:13 | -23.19104 | -43.99736 | 12528 ft | 305 kts | 2° |
| 2026-05-03 23:13 | -23.17020 | -43.99360 | 12188 ft | 305 kts | 23° |
| 2026-05-03 23:14 | -23.15370 | -43.97933 | 12060 ft | 304 kts | 55° |
| 2026-05-03 23:14 | -23.14341 | -43.95871 | 12106 ft | 308 kts | 63° |
| 2026-05-03 23:14 | -23.13405 | -43.93765 | 11842 ft | 311 kts | 63° |
| 2026-05-03 23:14 | -23.12489 | -43.91656 | 11512 ft | 309 kts | 64° |
| 2026-05-03 23:15 | -23.11577 | -43.89538 | 11169 ft | 306 kts | 64° |
| 2026-05-03 23:15 | -23.10690 | -43.87471 | 10836 ft | 303 kts | 64° |
| 2026-05-03 23:15 | -23.09797 | -43.85390 | 10499 ft | 300 kts | 64° |
| 2026-05-03 23:15 | -23.08930 | -43.83365 | 10175 ft | 298 kts | 64° |
| 2026-05-03 23:16 | -23.08060 | -43.81336 | 9850 ft | 296 kts | 64° |
| 2026-05-03 23:16 | -23.07193 | -43.79314 | 9521 ft | 294 kts | 64° |
| 2026-05-03 23:16 | -23.06330 | -43.77301 | 9198 ft | 291 kts | 64° |
| 2026-05-03 23:16 | -23.05482 | -43.75325 | 8880 ft | 290 kts | 64° |
| 2026-05-03 23:17 | -23.04638 | -43.73359 | 8561 ft | 288 kts | 64° |
| 2026-05-03 23:17 | -23.03798 | -43.71403 | 8239 ft | 282 kts | 64° |
| 2026-05-03 23:17 | -23.02981 | -43.69509 | 8022 ft | 272 kts | 64° |
| 2026-05-03 23:17 | -23.02174 | -43.67662 | 7809 ft | 271 kts | 64° |
| 2026-05-03 23:18 | -23.01366 | -43.65820 | 7534 ft | 271 kts | 64° |
| 2026-05-03 23:18 | -23.00558 | -43.63968 | 7239 ft | 272 kts | 64° |
| 2026-05-03 23:18 | -22.99746 | -43.62114 | 7063 ft | 268 kts | 64° |
| 2026-05-03 23:18 | -22.98943 | -43.60286 | 7075 ft | 269 kts | 64° |
| 2026-05-03 23:19 | -22.98130 | -43.58437 | 7076 ft | 270 kts | 64° |
| 2026-05-03 23:19 | -22.97318 | -43.56590 | 6893 ft | 273 kts | 64° |
| 2026-05-03 23:19 | -22.96496 | -43.54723 | 6611 ft | 268 kts | 65° |
| 2026-05-03 23:19 | -22.95697 | -43.52906 | 6322 ft | 262 kts | 65° |
| 2026-05-03 23:20 | -22.94919 | -43.51138 | 6038 ft | 257 kts | 66° |
| 2026-05-03 23:20 | -22.94179 | -43.49396 | 5767 ft | 252 kts | 66° |
| 2026-05-03 23:20 | -22.93453 | -43.47681 | 5497 ft | 249 kts | 66° |
| 2026-05-03 23:20 | -22.92736 | -43.45988 | 5216 ft | 244 kts | 67° |
| 2026-05-03 23:21 | -22.92047 | -43.44363 | 4944 ft | 230 kts | 67° |
| 2026-05-03 23:21 | -22.91386 | -43.42803 | 4824 ft | 222 kts | 67° |
| 2026-05-03 23:21 | -22.90742 | -43.41285 | 4825 ft | 225 kts | 66° |
| 2026-05-03 23:21 | -22.90081 | -43.39723 | 4674 ft | 227 kts | 66° |
| 2026-05-03 23:22 | -22.88761 | -43.36613 | 4205 ft | 225 kts | 67° |
| 2026-05-03 23:22 | -22.88317 | -43.35003 | 3961 ft | 222 kts | 91° |
| 2026-05-03 23:22 | -22.88349 | -43.33334 | 3746 ft | 220 kts | 93° |
| 2026-05-03 23:23 | -22.88365 | -43.31710 | 3547 ft | 206 kts | 90° |
| 2026-05-03 23:23 | -22.88341 | -43.30242 | 3325 ft | 188 kts | 95° |
| 2026-05-03 23:23 | -22.88423 | -43.28846 | 3091 ft | 183 kts | 95° |
| 2026-05-03 23:23 | -22.88494 | -43.27460 | 2891 ft | 184 kts | 95° |
| 2026-05-03 23:24 | -22.88678 | -43.26139 | 2692 ft | 168 kts | 112° |
| 2026-05-03 23:24 | -22.89101 | -43.24988 | 2509 ft | 157 kts | 113° |
| 2026-05-03 23:24 | -22.89494 | -43.23932 | 2403 ft | 149 kts | 113° |
| 2026-05-03 23:24 | -22.89887 | -43.22877 | 2233 ft | 149 kts | 113° |
| 2026-05-03 23:25 | -22.90263 | -43.21874 | 2033 ft | 142 kts | 116° |
| 2026-05-03 23:25 | -22.90807 | -43.21003 | 1860 ft | 139 kts | 127° |
| 2026-05-03 23:25 | -22.91457 | -43.20231 | 1693 ft | 140 kts | 151° |
| 2026-05-03 23:25 | -22.92360 | -43.19811 | 1570 ft | 140 kts | 156° |
| 2026-05-03 23:26 | -22.93056 | -43.19102 | 1398 ft | 140 kts | 112° |
| 2026-05-03 23:26 | -22.93148 | -43.18093 | 1235 ft | 132 kts | 89° |
| 2026-05-03 23:26 | -22.93053 | -43.17121 | 1002 ft | 130 kts | 66° |
| 2026-05-03 23:26 | -22.92450 | -43.16401 | 747 ft | 134 kts | 24° |
| 2026-05-03 23:27 | -22.91544 | -43.16234 | 877 ft | 134 kts | 359° |
| 2026-05-03 23:27 | -22.90619 | -43.16238 | 1495 ft | 137 kts | 2° |
| 2026-05-03 23:27 | -22.89673 | -43.16212 | 2046 ft | 139 kts | 2° |
| 2026-05-03 23:27 | -22.88684 | -43.16196 | 2511 ft | 145 kts | 2° |
| 2026-05-03 23:28 | -22.87683 | -43.16177 | 2825 ft | 144 kts | 6° |
| 2026-05-03 23:28 | -22.86730 | -43.15868 | 3255 ft | 147 kts | 38° |
| 2026-05-03 23:28 | -22.86080 | -43.15009 | 3759 ft | 158 kts | 71° |
| 2026-05-03 23:28 | -22.85853 | -43.13833 | 4353 ft | 167 kts | 83° |
| 2026-05-03 23:29 | -22.85845 | -43.12486 | 4746 ft | 194 kts | 97° |
| 2026-05-03 23:29 | -22.86198 | -43.10961 | 4889 ft | 208 kts | 115° |
| 2026-05-03 23:29 | -22.86902 | -43.09661 | 4816 ft | 203 kts | 127° |
| 2026-05-03 23:29 | -22.87777 | -43.08372 | 4965 ft | 212 kts | 128° |
| 2026-05-03 23:30 | -22.88658 | -43.07048 | 5054 ft | 221 kts | 126° |
| 2026-05-03 23:30 | -22.89523 | -43.05674 | 5026 ft | 219 kts | 124° |
| 2026-05-03 23:30 | -22.90350 | -43.04292 | 5023 ft | 219 kts | 123° |
| 2026-05-03 23:30 | -22.91158 | -43.02868 | 5023 ft | 219 kts | 122° |
| 2026-05-03 23:31 | -22.91928 | -43.01438 | 5022 ft | 220 kts | 120° |
| 2026-05-03 23:31 | -22.92673 | -42.99977 | 5023 ft | 220 kts | 119° |
| 2026-05-03 23:31 | -22.93387 | -42.98494 | 5023 ft | 221 kts | 117° |
| 2026-05-03 23:31 | -22.94070 | -42.96992 | 5022 ft | 220 kts | 116° |
| 2026-05-03 23:32 | -22.94719 | -42.95477 | 5018 ft | 221 kts | 115° |
| 2026-05-03 23:32 | -22.95342 | -42.93926 | 5020 ft | 221 kts | 114° |
| 2026-05-03 23:32 | -22.95919 | -42.92394 | 5024 ft | 221 kts | 112° |
| 2026-05-03 23:32 | -22.96471 | -42.90836 | 5017 ft | 220 kts | 115° |
| 2026-05-03 23:33 | -22.97378 | -42.89539 | 5041 ft | 217 kts | 134° |
| 2026-05-03 23:33 | -22.98414 | -42.88311 | 5020 ft | 219 kts | 131° |
| 2026-05-03 23:33 | -22.99405 | -42.87048 | 5018 ft | 218 kts | 130° |
| 2026-05-03 23:33 | -23.00364 | -42.85776 | 5023 ft | 218 kts | 130° |
| 2026-05-03 23:34 | -23.01336 | -42.84462 | 5015 ft | 218 kts | 131° |
| 2026-05-03 23:34 | -23.02612 | -42.83598 | 5039 ft | 225 kts | 172° |
| 2026-05-03 23:34 | -23.04146 | -42.83823 | 5044 ft | 223 kts | 197° |
| 2026-05-03 23:34 | -23.05672 | -42.83819 | 4801 ft | 225 kts | 157° |
| 2026-05-03 23:35 | -23.06827 | -42.82699 | 4594 ft | 225 kts | 115° |
| 2026-05-03 23:35 | -23.07092 | -42.81064 | 4560 ft | 223 kts | 94° |
| 2026-05-03 23:35 | -23.07158 | -42.79361 | 4526 ft | 225 kts | 94° |
| 2026-05-03 23:35 | -23.07272 | -42.77673 | 4525 ft | 224 kts | 101° |
| 2026-05-03 23:36 | -23.07429 | -42.75980 | 4505 ft | 230 kts | 79° |
| 2026-05-03 23:36 | -23.06634 | -42.74520 | 4569 ft | 232 kts | 38° |
| 2026-05-03 23:36 | -23.05128 | -42.73948 | 4575 ft | 233 kts | 357° |
| 2026-05-03 23:36 | -23.03629 | -42.74562 | 4562 ft | 234 kts | 315° |
| 2026-05-03 23:37 | -23.02854 | -42.76063 | 4557 ft | 227 kts | 278° |
| 2026-05-03 23:37 | -23.02622 | -42.77801 | 4547 ft | 228 kts | 276° |
| 2026-05-03 23:37 | -23.02407 | -42.79518 | 4528 ft | 228 kts | 276° |
| 2026-05-03 23:37 | -23.02192 | -42.81219 | 4520 ft | 228 kts | 276° |
| 2026-05-03 23:38 | -23.01957 | -42.82925 | 4527 ft | 229 kts | 282° |
| 2026-05-03 23:38 | -23.01462 | -42.84550 | 4522 ft | 230 kts | 293° |
| 2026-05-03 23:38 | -23.00731 | -42.86101 | 4528 ft | 230 kts | 298° |
| 2026-05-03 23:38 | -23.00005 | -42.87658 | 4510 ft | 226 kts | 295° |
| 2026-05-03 23:39 | -22.99276 | -42.89206 | 4409 ft | 232 kts | 297° |
| 2026-05-03 23:39 | -22.98498 | -42.90760 | 4189 ft | 234 kts | 297° |
| 2026-05-03 23:39 | -22.97695 | -42.92314 | 3792 ft | 239 kts | 298° |
| 2026-05-03 23:39 | -22.96857 | -42.93910 | 3266 ft | 237 kts | 299° |
| 2026-05-03 23:40 | -22.96122 | -42.95456 | 2707 ft | 229 kts | 288° |
| 2026-05-03 23:40 | -22.95625 | -42.97060 | 2544 ft | 218 kts | 287° |
| 2026-05-03 23:40 | -22.95147 | -42.98610 | 2526 ft | 218 kts | 287° |
| 2026-05-03 23:40 | -22.94654 | -43.00207 | 2546 ft | 225 kts | 287° |
| 2026-05-03 23:41 | -22.94151 | -43.01833 | 2535 ft | 226 kts | 287° |
| 2026-05-03 23:41 | -22.93635 | -43.03448 | 2505 ft | 228 kts | 295° |
| 2026-05-03 23:41 | -22.92797 | -43.04865 | 2433 ft | 210 kts | 304° |
| 2026-05-03 23:41 | -22.91988 | -43.06097 | 2179 ft | 195 kts | 304° |
| 2026-05-03 23:42 | -22.91221 | -43.07267 | 1954 ft | 182 kts | 304° |
| 2026-05-03 23:42 | -22.90500 | -43.08364 | 1728 ft | 172 kts | 304° |
| 2026-05-03 23:42 | -22.89813 | -43.09410 | 1571 ft | 170 kts | 304° |
| 2026-05-03 23:42 | -22.89183 | -43.10473 | 1509 ft | 155 kts | 301° |
| 2026-05-03 23:43 | -22.88496 | -43.11348 | 1583 ft | 156 kts | 323° |
| 2026-05-03 23:43 | -22.87493 | -43.11722 | 1992 ft | 152 kts | 4° |
| 2026-05-03 23:43 | -22.86514 | -43.11376 | 2368 ft | 148 kts | 41° |
| 2026-05-03 23:43 | -22.85861 | -43.10536 | 2738 ft | 145 kts | 72° |
| 2026-05-03 23:44 | -22.85544 | -43.09474 | 2990 ft | 157 kts | 76° |
| 2026-05-03 23:44 | -22.85236 | -43.08234 | 3161 ft | 186 kts | 77° |
| 2026-05-03 23:44 | -22.84875 | -43.06744 | 3373 ft | 216 kts | 77° |
| 2026-05-03 23:44 | -22.84486 | -43.05128 | 3919 ft | 229 kts | 77° |
| 2026-05-03 23:45 | -22.84086 | -43.03450 | 4700 ft | 231 kts | 77° |
| 2026-05-03 23:45 | -22.83683 | -43.01741 | 4989 ft | 234 kts | 77° |
| 2026-05-03 23:45 | -22.83278 | -43.00029 | 5020 ft | 232 kts | 77° |
| 2026-05-03 23:45 | -22.82873 | -42.98325 | 5028 ft | 230 kts | 77° |
| 2026-05-03 23:46 | -22.82471 | -42.96646 | 5033 ft | 229 kts | 77° |
| 2026-05-03 23:46 | -22.81911 | -42.95029 | 5031 ft | 232 kts | 52° |
| 2026-05-03 23:46 | -22.80579 | -42.94080 | 5069 ft | 234 kts | 11° |
| 2026-05-03 23:46 | -22.78976 | -42.94278 | 5072 ft | 235 kts | 330° |
| 2026-05-03 23:47 | -22.77507 | -42.95014 | 5057 ft | 235 kts | 353° |
| 2026-05-03 23:47 | -22.75931 | -42.94692 | 5078 ft | 232 kts | 34° |
| 2026-05-03 23:47 | -22.74940 | -42.93362 | 5075 ft | 229 kts | 76° |
| 2026-05-03 23:47 | -22.74839 | -42.91658 | 5064 ft | 227 kts | 105° |
| 2026-05-03 23:48 | -22.75658 | -42.90264 | 5061 ft | 224 kts | 146° |
| 2026-05-03 23:48 | -22.77152 | -42.89761 | 5071 ft | 223 kts | 176° |
| 2026-05-03 23:48 | -22.78710 | -42.89696 | 5039 ft | 224 kts | 178° |
| 2026-05-03 23:48 | -22.80288 | -42.89646 | 5032 ft | 223 kts | 178° |
| 2026-05-03 23:49 | -22.81829 | -42.89592 | 5033 ft | 223 kts | 178° |
| 2026-05-03 23:49 | -22.83394 | -42.89534 | 5033 ft | 224 kts | 178° |
| 2026-05-03 23:49 | -22.84957 | -42.89472 | 5038 ft | 224 kts | 178° |
| 2026-05-03 23:49 | -22.86537 | -42.89408 | 5035 ft | 223 kts | 178° |
| 2026-05-03 23:50 | -22.88094 | -42.89346 | 5036 ft | 222 kts | 178° |
| 2026-05-03 23:50 | -22.89128 | -42.89303 | 5034 ft | 223 kts | 178° |
| 2026-05-03 23:50 | -22.91208 | -42.89221 | 4971 ft | 226 kts | 178° |
| 2026-05-03 23:50 | -22.92790 | -42.89163 | 4683 ft | 227 kts | 178° |
| 2026-05-03 23:51 | -22.94380 | -42.89115 | 4406 ft | 224 kts | 178° |
| 2026-05-03 23:51 | -22.95930 | -42.89078 | 4120 ft | 222 kts | 178° |
| 2026-05-03 23:51 | -22.97482 | -42.89048 | 3836 ft | 219 kts | 178° |
| 2026-05-03 23:51 | -22.98999 | -42.89026 | 3565 ft | 217 kts | 178° |
| 2026-05-03 23:52 | -23.00487 | -42.89009 | 3516 ft | 213 kts | 178° |
| 2026-05-03 23:52 | -23.02004 | -42.88993 | 3511 ft | 214 kts | 178° |
| 2026-05-03 23:52 | -23.03522 | -42.88972 | 3507 ft | 217 kts | 178° |
| 2026-05-03 23:52 | -23.05026 | -42.88948 | 3511 ft | 216 kts | 178° |
| 2026-05-03 23:53 | -23.06538 | -42.88924 | 3510 ft | 216 kts | 178° |
| 2026-05-03 23:53 | -23.08054 | -42.88904 | 3506 ft | 216 kts | 178° |
| 2026-05-03 23:53 | -23.09575 | -42.88878 | 3509 ft | 216 kts | 178° |
| 2026-05-03 23:53 | -23.11077 | -42.88847 | 3506 ft | 221 kts | 178° |
| 2026-05-03 23:54 | -23.12592 | -42.88813 | 3511 ft | 216 kts | 178° |
| 2026-05-03 23:54 | -23.14090 | -42.89015 | 3497 ft | 218 kts | 206° |
| 2026-05-03 23:54 | -23.15132 | -42.90194 | 3548 ft | 224 kts | 249° |
| 2026-05-03 23:54 | -23.15234 | -42.91852 | 3573 ft | 220 kts | 278° |
| 2026-05-03 23:55 | -23.14973 | -42.93397 | 3525 ft | 197 kts | 280° |
| 2026-05-03 23:55 | -23.14576 | -42.94805 | 3485 ft | 194 kts | 289° |
| 2026-05-03 23:55 | -23.14102 | -42.96181 | 3504 ft | 197 kts | 289° |
| 2026-05-03 23:55 | -23.13634 | -42.97588 | 3500 ft | 197 kts | 288° |
| 2026-05-03 23:56 | -23.13179 | -42.98982 | 3504 ft | 197 kts | 288° |
| 2026-05-03 23:56 | -23.12722 | -43.00397 | 3504 ft | 198 kts | 288° |
| 2026-05-03 23:56 | -23.12268 | -43.01808 | 3503 ft | 197 kts | 287° |
| 2026-05-03 23:56 | -23.11818 | -43.03219 | 3501 ft | 198 kts | 288° |
| 2026-05-03 23:57 | -23.11374 | -43.04612 | 3494 ft | 196 kts | 287° |
| 2026-05-03 23:57 | -23.10928 | -43.06010 | 3505 ft | 197 kts | 287° |
| 2026-05-03 23:57 | -23.10486 | -43.07399 | 3490 ft | 198 kts | 287° |
| 2026-05-03 23:57 | -23.10035 | -43.08815 | 3488 ft | 197 kts | 288° |
| 2026-05-03 23:58 | -23.09548 | -43.10204 | 3467 ft | 199 kts | 302° |
| 2026-05-03 23:58 | -23.08492 | -43.11115 | 3330 ft | 198 kts | 345° |
| 2026-05-03 23:58 | -23.07161 | -43.11396 | 3188 ft | 184 kts | 352° |
| 2026-05-03 23:58 | -23.05936 | -43.11617 | 2927 ft | 176 kts | 352° |
| 2026-05-03 23:59 | -23.04728 | -43.11832 | 2685 ft | 173 kts | 352° |
| 2026-05-03 23:59 | -23.03542 | -43.12042 | 2443 ft | 173 kts | 352° |
| 2026-05-03 23:59 | -23.02342 | -43.12253 | 2207 ft | 173 kts | 352° |
| 2026-05-03 23:59 | -23.01150 | -43.12465 | 1986 ft | 174 kts | 352° |
| 2026-05-04 00:00 | -22.99965 | -43.12684 | 1792 ft | 174 kts | 352° |
| 2026-05-04 00:00 | -22.98777 | -43.12903 | 1599 ft | 172 kts | 352° |
| 2026-05-04 00:00 | -22.97624 | -43.13116 | 1500 ft | 163 kts | 351° |
| 2026-05-04 00:00 | -22.96511 | -43.13321 | 1308 ft | 161 kts | 351° |
| 2026-05-04 00:01 | -22.95409 | -43.13524 | 1106 ft | 159 kts | 351° |
| 2026-05-04 00:01 | -22.94318 | -43.13725 | 890 ft | 156 kts | 350° |
| 2026-05-04 00:01 | -22.93286 | -43.13933 | 626 ft | 144 kts | 348° |
| 2026-05-04 00:01 | -22.92324 | -43.14142 | 489 ft | 136 kts | 348° |
| 2026-05-04 00:02 | -22.91384 | -43.14338 | 958 ft | 136 kts | 349° |
| 2026-05-04 00:02 | -22.90438 | -43.14526 | 1446 ft | 141 kts | 351° |
| 2026-05-04 00:02 | -22.89444 | -43.14679 | 1895 ft | 148 kts | 2° |
| 2026-05-04 00:02 | -22.88493 | -43.14265 | 2275 ft | 156 kts | 50° |
| 2026-05-04 00:03 | -22.88051 | -43.13240 | 2882 ft | 149 kts | 77° |
| 2026-05-04 00:03 | -22.87749 | -43.12106 | 3329 ft | 163 kts | 81° |
| 2026-05-04 00:03 | -22.87712 | -43.10841 | 3766 ft | 179 kts | 101° |
| 2026-05-04 00:03 | -22.88067 | -43.09463 | 4117 ft | 199 kts | 114° |
| 2026-05-04 00:04 | -22.88661 | -43.08201 | 4345 ft | 184 kts | 124° |
| 2026-05-04 00:04 | -22.89384 | -43.07096 | 4383 ft | 185 kts | 128° |
| 2026-05-04 00:04 | -22.90204 | -43.05975 | 4496 ft | 188 kts | 130° |
| 2026-05-04 00:04 | -22.91023 | -43.04866 | 4685 ft | 191 kts | 128° |
| 2026-05-04 00:05 | -22.91839 | -43.03642 | 5061 ft | 201 kts | 127° |
| 2026-05-04 00:05 | -22.92647 | -43.02420 | 5056 ft | 193 kts | 127° |
| 2026-05-04 00:05 | -22.93425 | -43.01239 | 5087 ft | 192 kts | 127° |
| 2026-05-04 00:05 | -22.94211 | -43.00042 | 5103 ft | 195 kts | 127° |
| 2026-05-04 00:06 | -22.95006 | -42.98836 | 5101 ft | 195 kts | 127° |
| 2026-05-04 00:06 | -22.95791 | -42.97640 | 5084 ft | 195 kts | 127° |
| 2026-05-04 00:06 | -22.96583 | -42.96433 | 5083 ft | 196 kts | 126° |
| 2026-05-04 00:06 | -22.97373 | -42.95233 | 5085 ft | 197 kts | 127° |
| 2026-05-04 00:07 | -22.97974 | -42.93919 | 5085 ft | 198 kts | 94° |
| 2026-05-04 00:07 | -22.97600 | -42.92495 | 5122 ft | 202 kts | 50° |
| 2026-05-04 00:07 | -22.96401 | -42.91740 | 5129 ft | 204 kts | 5° |
| 2026-05-04 00:07 | -22.95056 | -42.92094 | 5123 ft | 203 kts | 319° |
| 2026-05-04 00:08 | -22.94317 | -42.93355 | 5131 ft | 201 kts | 278° |
| 2026-05-04 00:08 | -22.94217 | -42.94862 | 5098 ft | 200 kts | 251° |
| 2026-05-04 00:08 | -22.95009 | -42.96030 | 5122 ft | 197 kts | 206° |
| 2026-05-04 00:08 | -22.96312 | -42.96326 | 5130 ft | 193 kts | 179° |
| 2026-05-04 00:09 | -22.97665 | -42.96295 | 5088 ft | 193 kts | 177° |
| 2026-05-04 00:09 | -22.99018 | -42.96236 | 5073 ft | 192 kts | 177° |
| 2026-05-04 00:09 | -23.00374 | -42.96171 | 5076 ft | 193 kts | 177° |
| 2026-05-04 00:09 | -23.01715 | -42.96102 | 5074 ft | 193 kts | 177° |
| 2026-05-04 00:10 | -23.03054 | -42.96031 | 5079 ft | 192 kts | 177° |
| 2026-05-04 00:10 | -23.04401 | -42.95958 | 5071 ft | 193 kts | 177° |
| 2026-05-04 00:10 | -23.05772 | -42.95889 | 4819 ft | 198 kts | 177° |
| 2026-05-04 00:10 | -23.07153 | -42.95829 | 4558 ft | 197 kts | 177° |
| 2026-05-04 00:11 | -23.08543 | -42.95781 | 4278 ft | 196 kts | 178° |
| 2026-05-04 00:11 | -23.09932 | -42.95745 | 3978 ft | 196 kts | 177° |
| 2026-05-04 00:11 | -23.11247 | -42.95990 | 3693 ft | 197 kts | 212° |
| 2026-05-04 00:11 | -23.12030 | -42.97159 | 3586 ft | 193 kts | 259° |
| 2026-05-04 00:12 | -23.11822 | -42.98582 | 3534 ft | 198 kts | 299° |
| 2026-05-04 00:12 | -23.11106 | -42.99851 | 3460 ft | 198 kts | 300° |
| 2026-05-04 00:12 | -23.10496 | -43.01197 | 3293 ft | 200 kts | 289° |
| 2026-05-04 00:12 | -23.10107 | -43.02636 | 3042 ft | 198 kts | 281° |
| 2026-05-04 00:13 | -23.09851 | -43.04117 | 2793 ft | 197 kts | 277° |
| 2026-05-04 00:13 | -23.09684 | -43.05577 | 2557 ft | 196 kts | 274° |
| 2026-05-04 00:13 | -23.09564 | -43.07065 | 2309 ft | 195 kts | 272° |
| 2026-05-04 00:13 | -23.09474 | -43.08528 | 2067 ft | 194 kts | 271° |
| 2026-05-04 00:14 | -23.09299 | -43.09980 | 1828 ft | 196 kts | 295° |
| 2026-05-04 00:14 | -23.08365 | -43.11003 | 1780 ft | 196 kts | 340° |
| 2026-05-04 00:14 | -23.07042 | -43.11333 | 1743 ft | 195 kts | 351° |
| 2026-05-04 00:14 | -23.05713 | -43.11573 | 1649 ft | 194 kts | 352° |
| 2026-05-04 00:15 | -23.04364 | -43.11806 | 1616 ft | 192 kts | 352° |
| 2026-05-04 00:15 | -23.03051 | -43.12026 | 1660 ft | 190 kts | 352° |
| 2026-05-04 00:15 | -23.01725 | -43.12244 | 1647 ft | 192 kts | 352° |
| 2026-05-04 00:15 | -23.00444 | -43.12454 | 1561 ft | 176 kts | 352° |
| 2026-05-04 00:16 | -22.99301 | -43.12639 | 1448 ft | 155 kts | 353° |
| 2026-05-04 00:16 | -22.98272 | -43.12805 | 1443 ft | 145 kts | 353° |
| 2026-05-04 00:16 | -22.97269 | -43.12966 | 1449 ft | 147 kts | 353° |
| 2026-05-04 00:16 | -22.96288 | -43.13198 | 1359 ft | 142 kts | 333° |
| 2026-05-04 00:17 | -22.95464 | -43.13737 | 1184 ft | 135 kts | 325° |
| 2026-05-04 00:17 | -22.94869 | -43.14484 | 965 ft | 128 kts | 303° |
| 2026-05-04 00:17 | -22.94342 | -43.15283 | 775 ft | 130 kts | 317° |
| 2026-05-04 00:17 | -22.93572 | -43.15780 | 573 ft | 131 kts | 336° |
| 2026-05-04 00:18 | -22.92707 | -43.16094 | 307 ft | 128 kts | 346° |
| 2026-05-04 00:18 | -22.91850 | -43.16229 | 76 ft | 120 kts | 356° |
| 2026-05-04 00:18 | -22.91055 | -43.16285 | 21 ft | 96 kts | 356° |
| 2026-05-04 00:18 | -22.90651 | -43.16309 | 21 ft | 15 kts | 356° |
| 2026-05-04 00:19 | -22.90537 | -43.16317 | 21 ft | 9 kts | 350° |
| 2026-05-04 00:19 | -22.90491 | -43.16363 | 22 ft | 9 kts | 277° |
| 2026-05-04 00:19 | -22.90496 | -43.16436 | 25 ft | 9 kts | 264° |
| 2026-05-04 00:19 | -22.90499 | -43.16509 | 27 ft | 10 kts | 267° |
| 2026-05-04 00:20 | -22.90533 | -43.16558 | 27 ft | 9 kts | 182° |
| 2026-05-04 00:20 | -22.90621 | -43.16552 | 27 ft | 15 kts | 176° |
| 2026-05-04 00:20 | -22.90742 | -43.16544 | 27 ft | 18 kts | 177° |
| 2026-05-04 00:20 | -22.90809 | -43.16545 | 27 ft | 9 kts | 193° |
| 2026-05-04 00:21 | -22.90899 | -43.16548 | 27 ft | 15 kts | 175° |
| 2026-05-04 00:21 | -22.91014 | -43.16540 | 26 ft | 17 kts | 176° |
| 2026-05-04 00:21 | -22.91116 | -43.16524 | 25 ft | 11 kts | 164° |
| 2026-05-04 00:21 | -22.91184 | -43.16514 | 25 ft | 5 kts | 176° |
| 2026-05-04 00:22 | -22.91207 | -43.16524 | 25 ft | 2 kts | 249° |
| 2026-05-04 00:22 | -22.91207 | -43.16537 | 26 ft | 1 kts | 270° |
| 2026-05-04 00:22 | -22.91207 | -43.16557 | 26 ft | 3 kts | 268° |
| 2026-05-04 00:22 | -22.91208 | -43.16571 | 27 ft | 0 kts | 265° |
| 2026-05-04 00:23 | -22.91208 | -43.16577 | 27 ft | 0 kts | 267° |